sensor_id;sensor_type;location;lat;lon;timestamp;P1;durP1;ratioP1;P2;durP2;ratioP2
18720;SDS011;9489;50.948;3.114;2023-12-14T00:00:43;61.67;;;31.73;;
18720;SDS011;9489;50.948;3.114;2023-12-14T00:03:09;65.13;;;33.03;;
18720;SDS011;9489;50.948;3.114;2023-12-14T00:05:34;56.10;;;28.05;;
18720;SDS011;9489;50.948;3.114;2023-12-14T00:08:00;51.03;;;28.65;;
18720;SDS011;9489;50.948;3.114;2023-12-14T00:10:26;56.10;;;27.73;;
18720;SDS011;9489;50.948;3.114;2023-12-14T00:12:52;46.83;;;25.52;;
18720;SDS011;9489;50.948;3.114;2023-12-14T00:15:19;49.95;;;26.70;;
18720;SDS011;9489;50.948;3.114;2023-12-14T00:17:45;43.97;;;25.02;;
18720;SDS011;9489;50.948;3.114;2023-12-14T00:20:10;37.72;;;21.92;;
18720;SDS011;9489;50.948;3.114;2023-12-14T00:22:36;36.28;;;21.02;;
18720;SDS011;9489;50.948;3.114;2023-12-14T00:25:03;26.30;;;16.48;;
18720;SDS011;9489;50.948;3.114;2023-12-14T00:27:29;28.63;;;16.45;;
18720;SDS011;9489;50.948;3.114;2023-12-14T00:29:55;24.60;;;15.82;;
18720;SDS011;9489;50.948;3.114;2023-12-14T00:32:21;22.25;;;14.73;;
18720;SDS011;9489;50.948;3.114;2023-12-14T00:34:46;21.90;;;15.73;;
18720;SDS011;9489;50.948;3.114;2023-12-14T00:37:12;20.92;;;14.50;;
18720;SDS011;9489;50.948;3.114;2023-12-14T00:39:38;22.60;;;15.70;;
18720;SDS011;9489;50.948;3.114;2023-12-14T00:42:04;22.17;;;15.30;;
18720;SDS011;9489;50.948;3.114;2023-12-14T00:44:30;22.75;;;15.63;;
18720;SDS011;9489;50.948;3.114;2023-12-14T00:46:55;21.30;;;16.42;;
18720;SDS011;9489;50.948;3.114;2023-12-14T00:49:23;24.45;;;17.58;;
18720;SDS011;9489;50.948;3.114;2023-12-14T00:51:49;23.50;;;17.25;;
18720;SDS011;9489;50.948;3.114;2023-12-14T00:54:14;21.88;;;17.52;;
18720;SDS011;9489;50.948;3.114;2023-12-14T00:56:40;23.80;;;16.58;;
18720;SDS011;9489;50.948;3.114;2023-12-14T00:59:06;20.52;;;16.42;;
18720;SDS011;9489;50.948;3.114;2023-12-14T01:01:31;19.30;;;14.32;;
18720;SDS011;9489;50.948;3.114;2023-12-14T01:03:57;20.25;;;13.38;;
18720;SDS011;9489;50.948;3.114;2023-12-14T01:06:24;16.73;;;12.35;;
18720;SDS011;9489;50.948;3.114;2023-12-14T01:08:50;14.27;;;11.35;;
18720;SDS011;9489;50.948;3.114;2023-12-14T01:11:15;15.98;;;10.77;;
18720;SDS011;9489;50.948;3.114;2023-12-14T01:13:41;15.32;;;9.48;;
18720;SDS011;9489;50.948;3.114;2023-12-14T01:16:07;13.23;;;9.65;;
18720;SDS011;9489;50.948;3.114;2023-12-14T01:18:33;14.10;;;9.25;;
18720;SDS011;9489;50.948;3.114;2023-12-14T01:20:58;11.88;;;9.15;;
18720;SDS011;9489;50.948;3.114;2023-12-14T01:23:24;12.80;;;8.40;;
18720;SDS011;9489;50.948;3.114;2023-12-14T01:25:49;12.13;;;7.70;;
18720;SDS011;9489;50.948;3.114;2023-12-14T01:28:15;16.58;;;8.02;;
18720;SDS011;9489;50.948;3.114;2023-12-14T01:30:41;11.30;;;7.00;;
18720;SDS011;9489;50.948;3.114;2023-12-14T01:33:06;9.77;;;6.68;;
18720;SDS011;9489;50.948;3.114;2023-12-14T01:35:32;8.80;;;5.88;;
18720;SDS011;9489;50.948;3.114;2023-12-14T01:37:58;9.63;;;6.35;;
18720;SDS011;9489;50.948;3.114;2023-12-14T01:40:23;11.90;;;7.00;;
18720;SDS011;9489;50.948;3.114;2023-12-14T01:42:49;11.65;;;5.80;;
18720;SDS011;9489;50.948;3.114;2023-12-14T01:45:15;10.25;;;5.68;;
18720;SDS011;9489;50.948;3.114;2023-12-14T01:47:42;9.05;;;5.22;;
18720;SDS011;9489;50.948;3.114;2023-12-14T01:50:08;8.88;;;5.43;;
18720;SDS011;9489;50.948;3.114;2023-12-14T01:52:34;9.27;;;5.22;;
18720;SDS011;9489;50.948;3.114;2023-12-14T01:54:59;11.93;;;5.15;;
18720;SDS011;9489;50.948;3.114;2023-12-14T01:57:27;10.77;;;5.38;;
18720;SDS011;9489;50.948;3.114;2023-12-14T01:59:53;10.85;;;5.38;;
18720;SDS011;9489;50.948;3.114;2023-12-14T02:02:19;8.25;;;4.78;;
18720;SDS011;9489;50.948;3.114;2023-12-14T02:04:44;13.45;;;5.78;;
18720;SDS011;9489;50.948;3.114;2023-12-14T02:07:10;9.55;;;4.97;;
18720;SDS011;9489;50.948;3.114;2023-12-14T02:09:36;18.33;;;5.43;;
18720;SDS011;9489;50.948;3.114;2023-12-14T02:12:02;11.88;;;4.82;;
18720;SDS011;9489;50.948;3.114;2023-12-14T02:14:28;8.25;;;4.55;;
18720;SDS011;9489;50.948;3.114;2023-12-14T02:16:53;6.75;;;5.00;;
18720;SDS011;9489;50.948;3.114;2023-12-14T02:19:19;9.63;;;5.07;;
18720;SDS011;9489;50.948;3.114;2023-12-14T02:21:44;8.38;;;4.72;;
18720;SDS011;9489;50.948;3.114;2023-12-14T02:24:10;7.50;;;4.25;;
18720;SDS011;9489;50.948;3.114;2023-12-14T02:26:36;11.75;;;4.68;;
18720;SDS011;9489;50.948;3.114;2023-12-14T02:29:02;9.73;;;4.22;;
18720;SDS011;9489;50.948;3.114;2023-12-14T02:31:27;8.88;;;4.75;;
18720;SDS011;9489;50.948;3.114;2023-12-14T02:33:53;9.90;;;4.65;;
18720;SDS011;9489;50.948;3.114;2023-12-14T02:36:18;11.15;;;4.85;;
18720;SDS011;9489;50.948;3.114;2023-12-14T02:38:44;10.57;;;4.82;;
18720;SDS011;9489;50.948;3.114;2023-12-14T02:41:10;11.85;;;4.93;;
18720;SDS011;9489;50.948;3.114;2023-12-14T02:43:36;8.57;;;4.28;;
18720;SDS011;9489;50.948;3.114;2023-12-14T02:46:03;7.85;;;4.68;;
18720;SDS011;9489;50.948;3.114;2023-12-14T02:48:29;13.95;;;5.50;;
18720;SDS011;9489;50.948;3.114;2023-12-14T02:50:55;10.43;;;4.97;;
18720;SDS011;9489;50.948;3.114;2023-12-14T02:53:20;13.65;;;5.50;;
18720;SDS011;9489;50.948;3.114;2023-12-14T02:55:46;8.45;;;5.10;;
18720;SDS011;9489;50.948;3.114;2023-12-14T02:58:12;8.68;;;4.43;;
18720;SDS011;9489;50.948;3.114;2023-12-14T03:00:37;10.05;;;5.10;;
18720;SDS011;9489;50.948;3.114;2023-12-14T03:03:03;8.45;;;4.95;;
18720;SDS011;9489;50.948;3.114;2023-12-14T03:05:29;11.15;;;5.40;;
18720;SDS011;9489;50.948;3.114;2023-12-14T03:07:54;12.20;;;4.93;;
18720;SDS011;9489;50.948;3.114;2023-12-14T03:10:20;11.70;;;5.85;;
18720;SDS011;9489;50.948;3.114;2023-12-14T03:12:45;11.48;;;5.63;;
18720;SDS011;9489;50.948;3.114;2023-12-14T03:15:11;9.35;;;5.55;;
18720;SDS011;9489;50.948;3.114;2023-12-14T03:17:37;8.18;;;5.43;;
18720;SDS011;9489;50.948;3.114;2023-12-14T03:20:03;11.57;;;6.05;;
18720;SDS011;9489;50.948;3.114;2023-12-14T03:22:30;11.60;;;6.72;;
18720;SDS011;9489;50.948;3.114;2023-12-14T03:24:56;11.65;;;5.38;;
18720;SDS011;9489;50.948;3.114;2023-12-14T03:27:21;9.65;;;5.57;;
18720;SDS011;9489;50.948;3.114;2023-12-14T03:29:48;10.13;;;5.30;;
18720;SDS011;9489;50.948;3.114;2023-12-14T03:32:14;11.15;;;5.63;;
18720;SDS011;9489;50.948;3.114;2023-12-14T03:34:39;11.15;;;5.22;;
18720;SDS011;9489;50.948;3.114;2023-12-14T03:37:06;12.18;;;5.60;;
18720;SDS011;9489;50.948;3.114;2023-12-14T03:39:31;10.60;;;5.30;;
18720;SDS011;9489;50.948;3.114;2023-12-14T03:41:57;13.68;;;6.65;;
18720;SDS011;9489;50.948;3.114;2023-12-14T03:44:23;9.98;;;6.20;;
18720;SDS011;9489;50.948;3.114;2023-12-14T03:46:49;12.60;;;6.07;;
18720;SDS011;9489;50.948;3.114;2023-12-14T03:49:15;11.60;;;5.50;;
18720;SDS011;9489;50.948;3.114;2023-12-14T03:51:41;10.93;;;6.25;;
18720;SDS011;9489;50.948;3.114;2023-12-14T03:54:06;11.50;;;6.65;;
18720;SDS011;9489;50.948;3.114;2023-12-14T03:56:32;8.85;;;5.40;;
18720;SDS011;9489;50.948;3.114;2023-12-14T03:58:58;10.55;;;6.40;;
18720;SDS011;9489;50.948;3.114;2023-12-14T04:01:24;12.05;;;5.80;;
18720;SDS011;9489;50.948;3.114;2023-12-14T04:03:49;12.48;;;5.28;;
18720;SDS011;9489;50.948;3.114;2023-12-14T04:06:15;12.23;;;5.55;;
18720;SDS011;9489;50.948;3.114;2023-12-14T04:08:41;12.20;;;5.18;;
18720;SDS011;9489;50.948;3.114;2023-12-14T04:11:07;8.25;;;6.60;;
18720;SDS011;9489;50.948;3.114;2023-12-14T04:13:33;15.18;;;6.32;;
18720;SDS011;9489;50.948;3.114;2023-12-14T04:15:59;12.85;;;5.80;;
18720;SDS011;9489;50.948;3.114;2023-12-14T04:18:25;13.25;;;6.10;;
18720;SDS011;9489;50.948;3.114;2023-12-14T04:20:51;10.00;;;6.25;;
18720;SDS011;9489;50.948;3.114;2023-12-14T04:23:16;12.15;;;7.20;;
18720;SDS011;9489;50.948;3.114;2023-12-14T04:25:43;12.23;;;5.95;;
18720;SDS011;9489;50.948;3.114;2023-12-14T04:28:08;12.38;;;6.93;;
18720;SDS011;9489;50.948;3.114;2023-12-14T04:30:34;14.70;;;6.55;;
18720;SDS011;9489;50.948;3.114;2023-12-14T04:33:00;10.02;;;6.15;;
18720;SDS011;9489;50.948;3.114;2023-12-14T04:35:25;12.20;;;7.40;;
18720;SDS011;9489;50.948;3.114;2023-12-14T04:37:51;11.52;;;6.88;;
18720;SDS011;9489;50.948;3.114;2023-12-14T04:40:17;10.98;;;6.53;;
18720;SDS011;9489;50.948;3.114;2023-12-14T04:42:42;10.25;;;6.22;;
18720;SDS011;9489;50.948;3.114;2023-12-14T04:45:08;8.18;;;5.75;;
18720;SDS011;9489;50.948;3.114;2023-12-14T04:47:34;10.88;;;5.63;;
18720;SDS011;9489;50.948;3.114;2023-12-14T04:50:01;11.43;;;6.20;;
18720;SDS011;9489;50.948;3.114;2023-12-14T04:52:27;12.80;;;6.05;;
18720;SDS011;9489;50.948;3.114;2023-12-14T04:54:53;12.23;;;6.18;;
18720;SDS011;9489;50.948;3.114;2023-12-14T04:57:18;11.85;;;6.70;;
18720;SDS011;9489;50.948;3.114;2023-12-14T04:59:44;13.48;;;6.63;;
18720;SDS011;9489;50.948;3.114;2023-12-14T05:02:10;10.35;;;6.82;;
18720;SDS011;9489;50.948;3.114;2023-12-14T05:04:35;13.63;;;7.57;;
18720;SDS011;9489;50.948;3.114;2023-12-14T05:07:01;11.35;;;7.18;;
18720;SDS011;9489;50.948;3.114;2023-12-14T05:09:27;11.52;;;6.47;;
18720;SDS011;9489;50.948;3.114;2023-12-14T05:11:53;10.52;;;6.60;;
18720;SDS011;9489;50.948;3.114;2023-12-14T05:14:18;10.88;;;7.28;;
18720;SDS011;9489;50.948;3.114;2023-12-14T05:16:44;11.00;;;6.88;;
18720;SDS011;9489;50.948;3.114;2023-12-14T05:19:10;13.07;;;7.13;;
18720;SDS011;9489;50.948;3.114;2023-12-14T05:21:35;10.00;;;6.60;;
18720;SDS011;9489;50.948;3.114;2023-12-14T05:24:01;13.98;;;7.07;;
18720;SDS011;9489;50.948;3.114;2023-12-14T05:26:28;12.10;;;7.47;;
18720;SDS011;9489;50.948;3.114;2023-12-14T05:28:53;9.68;;;7.22;;
18720;SDS011;9489;50.948;3.114;2023-12-14T05:31:19;8.70;;;6.82;;
18720;SDS011;9489;50.948;3.114;2023-12-14T05:33:44;11.55;;;7.40;;
18720;SDS011;9489;50.948;3.114;2023-12-14T05:36:10;10.77;;;7.40;;
18720;SDS011;9489;50.948;3.114;2023-12-14T05:38:39;13.23;;;7.68;;
18720;SDS011;9489;50.948;3.114;2023-12-14T05:41:05;15.50;;;7.30;;
18720;SDS011;9489;50.948;3.114;2023-12-14T05:43:31;12.85;;;7.75;;
18720;SDS011;9489;50.948;3.114;2023-12-14T05:45:57;13.57;;;8.70;;
18720;SDS011;9489;50.948;3.114;2023-12-14T05:48:23;16.17;;;8.65;;
18720;SDS011;9489;50.948;3.114;2023-12-14T05:50:51;10.50;;;8.40;;
18720;SDS011;9489;50.948;3.114;2023-12-14T05:53:16;10.77;;;8.80;;
18720;SDS011;9489;50.948;3.114;2023-12-14T05:55:42;10.60;;;8.65;;
18720;SDS011;9489;50.948;3.114;2023-12-14T05:58:08;11.57;;;8.55;;
18720;SDS011;9489;50.948;3.114;2023-12-14T06:00:34;13.95;;;9.15;;
18720;SDS011;9489;50.948;3.114;2023-12-14T06:03:00;17.38;;;9.98;;
18720;SDS011;9489;50.948;3.114;2023-12-14T06:05:26;12.77;;;8.40;;
18720;SDS011;9489;50.948;3.114;2023-12-14T06:07:52;13.80;;;8.90;;
18720;SDS011;9489;50.948;3.114;2023-12-14T06:10:18;15.27;;;9.77;;
18720;SDS011;9489;50.948;3.114;2023-12-14T06:12:44;12.88;;;9.48;;
18720;SDS011;9489;50.948;3.114;2023-12-14T06:15:09;13.40;;;8.18;;
18720;SDS011;9489;50.948;3.114;2023-12-14T06:17:36;13.68;;;9.07;;
18720;SDS011;9489;50.948;3.114;2023-12-14T06:20:04;13.20;;;8.45;;
18720;SDS011;9489;50.948;3.114;2023-12-14T06:22:33;13.50;;;8.77;;
18720;SDS011;9489;50.948;3.114;2023-12-14T06:25:00;14.75;;;8.80;;
18720;SDS011;9489;50.948;3.114;2023-12-14T06:27:26;17.98;;;9.05;;
18720;SDS011;9489;50.948;3.114;2023-12-14T06:29:52;11.80;;;8.20;;
18720;SDS011;9489;50.948;3.114;2023-12-14T06:32:18;11.85;;;9.05;;
18720;SDS011;9489;50.948;3.114;2023-12-14T06:34:43;11.50;;;9.13;;
18720;SDS011;9489;50.948;3.114;2023-12-14T06:37:09;14.00;;;8.10;;
18720;SDS011;9489;50.948;3.114;2023-12-14T06:39:35;12.73;;;10.32;;
18720;SDS011;9489;50.948;3.114;2023-12-14T06:42:01;14.00;;;9.88;;
18720;SDS011;9489;50.948;3.114;2023-12-14T06:44:27;13.27;;;9.20;;
18720;SDS011;9489;50.948;3.114;2023-12-14T06:46:53;17.95;;;10.05;;
18720;SDS011;9489;50.948;3.114;2023-12-14T06:49:20;13.98;;;10.02;;
18720;SDS011;9489;50.948;3.114;2023-12-14T06:51:46;14.40;;;10.93;;
18720;SDS011;9489;50.948;3.114;2023-12-14T06:54:11;16.77;;;10.27;;
18720;SDS011;9489;50.948;3.114;2023-12-14T06:56:37;14.02;;;9.40;;
18720;SDS011;9489;50.948;3.114;2023-12-14T06:59:03;16.63;;;9.68;;
18720;SDS011;9489;50.948;3.114;2023-12-14T07:01:28;12.75;;;10.98;;
18720;SDS011;9489;50.948;3.114;2023-12-14T07:03:54;16.00;;;11.65;;
18720;SDS011;9489;50.948;3.114;2023-12-14T07:06:20;15.88;;;11.48;;
18720;SDS011;9489;50.948;3.114;2023-12-14T07:08:46;18.80;;;11.68;;
18720;SDS011;9489;50.948;3.114;2023-12-14T07:11:12;16.88;;;11.93;;
18720;SDS011;9489;50.948;3.114;2023-12-14T07:13:38;17.65;;;11.43;;
18720;SDS011;9489;50.948;3.114;2023-12-14T07:16:05;20.13;;;12.40;;
18720;SDS011;9489;50.948;3.114;2023-12-14T07:18:35;15.30;;;12.27;;
18720;SDS011;9489;50.948;3.114;2023-12-14T07:21:01;14.65;;;11.40;;
18720;SDS011;9489;50.948;3.114;2023-12-14T07:23:27;17.65;;;12.20;;
18720;SDS011;9489;50.948;3.114;2023-12-14T07:25:53;15.95;;;12.10;;
18720;SDS011;9489;50.948;3.114;2023-12-14T07:28:20;16.65;;;12.48;;
18720;SDS011;9489;50.948;3.114;2023-12-14T07:30:45;15.40;;;10.05;;
18720;SDS011;9489;50.948;3.114;2023-12-14T07:33:12;17.55;;;12.30;;
18720;SDS011;9489;50.948;3.114;2023-12-14T07:35:38;19.27;;;11.50;;
18720;SDS011;9489;50.948;3.114;2023-12-14T07:38:03;17.42;;;12.05;;
18720;SDS011;9489;50.948;3.114;2023-12-14T07:40:29;18.10;;;12.13;;
18720;SDS011;9489;50.948;3.114;2023-12-14T07:42:55;18.63;;;13.02;;
18720;SDS011;9489;50.948;3.114;2023-12-14T07:45:20;18.77;;;13.30;;
18720;SDS011;9489;50.948;3.114;2023-12-14T07:47:46;20.85;;;12.52;;
18720;SDS011;9489;50.948;3.114;2023-12-14T07:50:12;15.70;;;11.55;;
18720;SDS011;9489;50.948;3.114;2023-12-14T07:52:38;19.15;;;12.43;;
18720;SDS011;9489;50.948;3.114;2023-12-14T07:55:05;17.15;;;12.27;;
18720;SDS011;9489;50.948;3.114;2023-12-14T07:57:31;19.02;;;11.57;;
18720;SDS011;9489;50.948;3.114;2023-12-14T07:59:56;15.85;;;11.80;;
18720;SDS011;9489;50.948;3.114;2023-12-14T08:02:22;19.10;;;11.52;;
18720;SDS011;9489;50.948;3.114;2023-12-14T08:04:48;19.15;;;12.48;;
18720;SDS011;9489;50.948;3.114;2023-12-14T08:07:14;19.60;;;11.90;;
18720;SDS011;9489;50.948;3.114;2023-12-14T08:09:39;19.23;;;11.98;;
18720;SDS011;9489;50.948;3.114;2023-12-14T08:12:05;21.27;;;13.50;;
18720;SDS011;9489;50.948;3.114;2023-12-14T08:14:34;18.70;;;13.88;;
18720;SDS011;9489;50.948;3.114;2023-12-14T08:17:02;20.58;;;12.43;;
18720;SDS011;9489;50.948;3.114;2023-12-14T08:19:28;16.95;;;11.70;;
18720;SDS011;9489;50.948;3.114;2023-12-14T08:21:54;15.05;;;11.30;;
18720;SDS011;9489;50.948;3.114;2023-12-14T08:24:20;17.25;;;12.25;;
18720;SDS011;9489;50.948;3.114;2023-12-14T08:26:45;17.23;;;11.27;;
18720;SDS011;9489;50.948;3.114;2023-12-14T08:29:11;17.88;;;12.35;;
18720;SDS011;9489;50.948;3.114;2023-12-14T08:31:36;18.02;;;11.68;;
18720;SDS011;9489;50.948;3.114;2023-12-14T08:34:02;15.32;;;11.75;;
18720;SDS011;9489;50.948;3.114;2023-12-14T08:36:28;19.08;;;12.77;;
18720;SDS011;9489;50.948;3.114;2023-12-14T08:38:54;17.38;;;11.23;;
18720;SDS011;9489;50.948;3.114;2023-12-14T08:41:20;15.93;;;11.10;;
18720;SDS011;9489;50.948;3.114;2023-12-14T08:43:45;17.13;;;11.02;;
18720;SDS011;9489;50.948;3.114;2023-12-14T08:46:11;16.88;;;11.35;;
18720;SDS011;9489;50.948;3.114;2023-12-14T08:48:37;14.90;;;11.38;;
18720;SDS011;9489;50.948;3.114;2023-12-14T08:51:03;15.07;;;11.93;;
18720;SDS011;9489;50.948;3.114;2023-12-14T08:53:29;16.30;;;10.55;;
18720;SDS011;9489;50.948;3.114;2023-12-14T08:55:55;12.05;;;9.52;;
18720;SDS011;9489;50.948;3.114;2023-12-14T08:58:20;15.60;;;10.98;;
18720;SDS011;9489;50.948;3.114;2023-12-14T09:00:46;14.95;;;10.23;;
18720;SDS011;9489;50.948;3.114;2023-12-14T09:03:12;16.50;;;10.65;;
18720;SDS011;9489;50.948;3.114;2023-12-14T09:05:37;16.48;;;12.45;;
18720;SDS011;9489;50.948;3.114;2023-12-14T09:08:07;15.57;;;12.32;;
18720;SDS011;9489;50.948;3.114;2023-12-14T09:10:32;17.77;;;11.63;;
18720;SDS011;9489;50.948;3.114;2023-12-14T09:12:58;13.55;;;10.90;;
18720;SDS011;9489;50.948;3.114;2023-12-14T09:15:25;14.50;;;10.68;;
18720;SDS011;9489;50.948;3.114;2023-12-14T09:17:51;13.82;;;10.25;;
18720;SDS011;9489;50.948;3.114;2023-12-14T09:20:16;14.85;;;10.75;;
18720;SDS011;9489;50.948;3.114;2023-12-14T09:22:42;16.60;;;10.93;;
18720;SDS011;9489;50.948;3.114;2023-12-14T09:25:08;15.88;;;11.55;;
18720;SDS011;9489;50.948;3.114;2023-12-14T09:27:34;18.17;;;10.30;;
18720;SDS011;9489;50.948;3.114;2023-12-14T09:30:00;18.10;;;10.50;;
18720;SDS011;9489;50.948;3.114;2023-12-14T09:32:26;15.40;;;10.13;;
18720;SDS011;9489;50.948;3.114;2023-12-14T09:34:51;12.95;;;10.27;;
18720;SDS011;9489;50.948;3.114;2023-12-14T09:37:21;15.90;;;10.25;;
18720;SDS011;9489;50.948;3.114;2023-12-14T09:39:47;18.00;;;10.00;;
18720;SDS011;9489;50.948;3.114;2023-12-14T09:42:12;14.52;;;10.95;;
18720;SDS011;9489;50.948;3.114;2023-12-14T09:44:43;15.32;;;10.25;;
18720;SDS011;9489;50.948;3.114;2023-12-14T09:47:09;14.82;;;11.35;;
18720;SDS011;9489;50.948;3.114;2023-12-14T09:49:35;14.85;;;10.80;;
18720;SDS011;9489;50.948;3.114;2023-12-14T09:52:02;16.08;;;10.70;;
18720;SDS011;9489;50.948;3.114;2023-12-14T09:54:28;14.63;;;9.55;;
18720;SDS011;9489;50.948;3.114;2023-12-14T09:56:54;12.68;;;9.90;;
18720;SDS011;9489;50.948;3.114;2023-12-14T09:59:20;15.90;;;10.05;;
18720;SDS011;9489;50.948;3.114;2023-12-14T10:01:46;15.82;;;8.57;;
18720;SDS011;9489;50.948;3.114;2023-12-14T10:04:13;12.70;;;8.68;;
18720;SDS011;9489;50.948;3.114;2023-12-14T10:06:40;15.55;;;9.60;;
18720;SDS011;9489;50.948;3.114;2023-12-14T10:09:07;11.32;;;7.57;;
18720;SDS011;9489;50.948;3.114;2023-12-14T10:11:38;13.77;;;8.05;;
18720;SDS011;9489;50.948;3.114;2023-12-14T10:14:24;12.82;;;9.32;;
18720;SDS011;9489;50.948;3.114;2023-12-14T10:16:50;12.00;;;8.23;;
18720;SDS011;9489;50.948;3.114;2023-12-14T10:19:17;12.45;;;7.75;;
18720;SDS011;9489;50.948;3.114;2023-12-14T10:21:43;11.13;;;6.97;;
18720;SDS011;9489;50.948;3.114;2023-12-14T10:24:12;8.75;;;6.60;;
18720;SDS011;9489;50.948;3.114;2023-12-14T10:26:38;12.40;;;7.43;;
18720;SDS011;9489;50.948;3.114;2023-12-14T10:29:04;12.35;;;6.63;;
18720;SDS011;9489;50.948;3.114;2023-12-14T10:31:30;10.52;;;6.03;;
18720;SDS011;9489;50.948;3.114;2023-12-14T10:33:56;10.57;;;5.47;;
18720;SDS011;9489;50.948;3.114;2023-12-14T10:36:23;9.80;;;4.43;;
18720;SDS011;9489;50.948;3.114;2023-12-14T10:38:55;9.82;;;4.63;;
18720;SDS011;9489;50.948;3.114;2023-12-14T10:41:23;12.35;;;3.35;;
18720;SDS011;9489;50.948;3.114;2023-12-14T10:43:53;9.57;;;3.40;;
18720;SDS011;9489;50.948;3.114;2023-12-14T10:46:20;8.75;;;3.28;;
18720;SDS011;9489;50.948;3.114;2023-12-14T10:48:54;7.53;;;3.00;;
18720;SDS011;9489;50.948;3.114;2023-12-14T10:51:21;6.75;;;3.28;;
18720;SDS011;9489;50.948;3.114;2023-12-14T10:53:49;6.93;;;2.78;;
18720;SDS011;9489;50.948;3.114;2023-12-14T10:56:17;9.05;;;2.95;;
18720;SDS011;9489;50.948;3.114;2023-12-14T11:01:16;13.18;;;3.08;;
18720;SDS011;9489;50.948;3.114;2023-12-14T11:03:43;7.35;;;2.88;;
18720;SDS011;9489;50.948;3.114;2023-12-14T11:06:28;3.53;;;2.78;;
18720;SDS011;9489;50.948;3.114;2023-12-14T11:09:05;8.70;;;2.72;;
18720;SDS011;9489;50.948;3.114;2023-12-14T11:11:41;7.05;;;2.80;;
18720;SDS011;9489;50.948;3.114;2023-12-14T11:14:18;4.93;;;2.47;;
18720;SDS011;9489;50.948;3.114;2023-12-14T11:16:44;6.28;;;3.10;;
18720;SDS011;9489;50.948;3.114;2023-12-14T11:21:47;6.03;;;3.45;;
18720;SDS011;9489;50.948;3.114;2023-12-14T11:24:22;6.90;;;3.22;;
18720;SDS011;9489;50.948;3.114;2023-12-14T11:26:51;6.82;;;3.45;;
18720;SDS011;9489;50.948;3.114;2023-12-14T11:29:17;7.68;;;3.60;;
18720;SDS011;9489;50.948;3.114;2023-12-14T11:31:44;6.25;;;3.95;;
18720;SDS011;9489;50.948;3.114;2023-12-14T11:34:11;8.48;;;3.60;;
18720;SDS011;9489;50.948;3.114;2023-12-14T11:36:37;7.35;;;3.30;;
18720;SDS011;9489;50.948;3.114;2023-12-14T11:39:07;8.55;;;3.92;;
18720;SDS011;9489;50.948;3.114;2023-12-14T11:41:33;7.43;;;3.45;;
18720;SDS011;9489;50.948;3.114;2023-12-14T11:43:59;9.82;;;3.65;;
18720;SDS011;9489;50.948;3.114;2023-12-14T11:46:24;3.92;;;2.90;;
18720;SDS011;9489;50.948;3.114;2023-12-14T11:48:50;6.53;;;3.38;;
18720;SDS011;9489;50.948;3.114;2023-12-14T11:51:16;8.00;;;3.40;;
18720;SDS011;9489;50.948;3.114;2023-12-14T11:53:49;15.45;;;7.13;;
18720;SDS011;9489;50.948;3.114;2023-12-14T11:56:19;7.07;;;4.07;;
18720;SDS011;9489;50.948;3.114;2023-12-14T11:58:45;31.10;;;21.67;;
18720;SDS011;9489;50.948;3.114;2023-12-14T12:03:41;4.57;;;2.33;;
18720;SDS011;9489;50.948;3.114;2023-12-14T12:06:20;7.60;;;2.40;;
18720;SDS011;9489;50.948;3.114;2023-12-14T12:08:49;8.10;;;2.38;;
18720;SDS011;9489;50.948;3.114;2023-12-14T12:11:16;6.55;;;2.28;;
18720;SDS011;9489;50.948;3.114;2023-12-14T12:13:51;5.43;;;2.28;;
18720;SDS011;9489;50.948;3.114;2023-12-14T12:16:17;4.47;;;1.98;;
18720;SDS011;9489;50.948;3.114;2023-12-14T12:18:43;7.32;;;1.90;;
18720;SDS011;9489;50.948;3.114;2023-12-14T12:21:10;7.03;;;2.42;;
18720;SDS011;9489;50.948;3.114;2023-12-14T12:23:37;2.80;;;2.05;;
18720;SDS011;9489;50.948;3.114;2023-12-14T12:26:02;5.32;;;2.63;;
18720;SDS011;9489;50.948;3.114;2023-12-14T12:28:29;5.65;;;2.25;;
18720;SDS011;9489;50.948;3.114;2023-12-14T12:30:55;6.40;;;2.60;;
18720;SDS011;9489;50.948;3.114;2023-12-14T12:33:21;5.28;;;2.42;;
18720;SDS011;9489;50.948;3.114;2023-12-14T12:35:46;9.40;;;2.13;;
18720;SDS011;9489;50.948;3.114;2023-12-14T12:38:12;5.65;;;2.08;;
18720;SDS011;9489;50.948;3.114;2023-12-14T12:40:38;5.28;;;1.75;;
18720;SDS011;9489;50.948;3.114;2023-12-14T12:43:04;6.25;;;2.22;;
18720;SDS011;9489;50.948;3.114;2023-12-14T12:45:30;7.15;;;1.95;;
18720;SDS011;9489;50.948;3.114;2023-12-14T12:47:57;6.95;;;1.70;;
18720;SDS011;9489;50.948;3.114;2023-12-14T12:50:23;2.97;;;1.85;;
18720;SDS011;9489;50.948;3.114;2023-12-14T12:52:49;5.57;;;2.08;;
18720;SDS011;9489;50.948;3.114;2023-12-14T12:55:16;5.05;;;1.88;;
18720;SDS011;9489;50.948;3.114;2023-12-14T12:57:41;4.07;;;1.95;;
18720;SDS011;9489;50.948;3.114;2023-12-14T13:00:08;6.47;;;2.40;;
18720;SDS011;9489;50.948;3.114;2023-12-14T13:02:44;5.57;;;2.00;;
18720;SDS011;9489;50.948;3.114;2023-12-14T13:05:12;4.18;;;1.90;;
18720;SDS011;9489;50.948;3.114;2023-12-14T13:07:38;6.57;;;2.20;;
18720;SDS011;9489;50.948;3.114;2023-12-14T13:10:04;6.45;;;2.65;;
18720;SDS011;9489;50.948;3.114;2023-12-14T13:12:34;7.65;;;2.10;;
18720;SDS011;9489;50.948;3.114;2023-12-14T13:15:00;8.10;;;2.50;;
18720;SDS011;9489;50.948;3.114;2023-12-14T13:17:26;7.68;;;2.58;;
18720;SDS011;9489;50.948;3.114;2023-12-14T13:19:52;5.70;;;2.55;;
18720;SDS011;9489;50.948;3.114;2023-12-14T13:22:18;4.75;;;2.42;;
18720;SDS011;9489;50.948;3.114;2023-12-14T13:24:44;4.95;;;2.00;;
18720;SDS011;9489;50.948;3.114;2023-12-14T13:27:10;4.07;;;2.55;;
18720;SDS011;9489;50.948;3.114;2023-12-14T13:29:36;5.88;;;2.00;;
18720;SDS011;9489;50.948;3.114;2023-12-14T13:32:02;8.40;;;2.50;;
18720;SDS011;9489;50.948;3.114;2023-12-14T13:34:28;6.63;;;2.08;;
18720;SDS011;9489;50.948;3.114;2023-12-14T13:36:54;5.60;;;2.60;;
18720;SDS011;9489;50.948;3.114;2023-12-14T13:39:20;5.63;;;1.83;;
18720;SDS011;9489;50.948;3.114;2023-12-14T13:41:46;8.35;;;1.90;;
18720;SDS011;9489;50.948;3.114;2023-12-14T13:44:13;8.20;;;2.60;;
18720;SDS011;9489;50.948;3.114;2023-12-14T13:46:39;7.43;;;2.47;;
18720;SDS011;9489;50.948;3.114;2023-12-14T13:49:04;4.30;;;2.00;;
18720;SDS011;9489;50.948;3.114;2023-12-14T13:51:30;4.38;;;1.88;;
18720;SDS011;9489;50.948;3.114;2023-12-14T13:53:56;5.93;;;2.35;;
18720;SDS011;9489;50.948;3.114;2023-12-14T13:56:22;6.85;;;2.30;;
18720;SDS011;9489;50.948;3.114;2023-12-14T13:58:48;7.15;;;2.10;;
18720;SDS011;9489;50.948;3.114;2023-12-14T14:01:14;5.15;;;2.60;;
18720;SDS011;9489;50.948;3.114;2023-12-14T14:03:42;3.65;;;1.90;;
18720;SDS011;9489;50.948;3.114;2023-12-14T14:06:09;9.07;;;2.70;;
18720;SDS011;9489;50.948;3.114;2023-12-14T14:08:34;7.45;;;2.55;;
18720;SDS011;9489;50.948;3.114;2023-12-14T14:11:00;7.30;;;2.38;;
18720;SDS011;9489;50.948;3.114;2023-12-14T14:13:26;8.60;;;2.72;;
18720;SDS011;9489;50.948;3.114;2023-12-14T14:15:53;5.35;;;2.20;;
18720;SDS011;9489;50.948;3.114;2023-12-14T14:18:19;4.93;;;2.25;;
18720;SDS011;9489;50.948;3.114;2023-12-14T14:20:45;6.05;;;1.73;;
18720;SDS011;9489;50.948;3.114;2023-12-14T14:23:10;5.95;;;2.45;;
18720;SDS011;9489;50.948;3.114;2023-12-14T14:25:36;5.00;;;1.60;;
18720;SDS011;9489;50.948;3.114;2023-12-14T14:28:02;4.72;;;2.10;;
18720;SDS011;9489;50.948;3.114;2023-12-14T14:30:28;4.95;;;2.50;;
18720;SDS011;9489;50.948;3.114;2023-12-14T14:32:54;3.45;;;1.90;;
18720;SDS011;9489;50.948;3.114;2023-12-14T14:35:20;8.48;;;2.47;;
18720;SDS011;9489;50.948;3.114;2023-12-14T14:37:46;3.65;;;2.45;;
18720;SDS011;9489;50.948;3.114;2023-12-14T14:40:12;7.97;;;2.50;;
18720;SDS011;9489;50.948;3.114;2023-12-14T14:42:41;5.95;;;2.45;;
18720;SDS011;9489;50.948;3.114;2023-12-14T14:45:07;6.00;;;2.85;;
18720;SDS011;9489;50.948;3.114;2023-12-14T14:47:34;5.72;;;2.72;;
18720;SDS011;9489;50.948;3.114;2023-12-14T14:50:00;7.05;;;2.90;;